• Join FlightAware (Why Join?)
  • Login
  • US Flag 
02:32AM EDT


 

Airport Tracker/Info


-or-


 

Live Flight TrackerFlight Track Log ✈ N163CA ✈ 02-Mar-2014 ✈ KSFB - KEYW

Flight Track Log - Related Links

Times and Time Zones

All times are in EST time to prevent confusion due to time zone crossing. See the N163CA flight status page for this flight to view local times or setup timezone preferences in your user account.

Time Position Orientation Groundspeed Altitude Reporting Facility
EST Latitude Longitude Course Direction KTS MPH feet Rate Location/Type
09:48AM 28.7833 -81.2167 90° East 86 99 800  Level Orlando TRACON
09:48AM 28.7833 -81.2000 90° East 92 106 1,100 600 Climbing Orlando TRACON
09:49AM 28.7667 -81.1667 120° Southeast 98 113 1,800 660 Climbing Orlando TRACON
09:50AM 28.7500 -81.1667 180° South 105 121 2,500 480 Climbing Orlando TRACON
09:51AM 28.7333 -81.2000 240° Southwest 107 123 2,800 240 Climbing Orlando TRACON
09:52AM 28.7167 -81.2333 240° Southwest 113 130 3,000 60 Climbing Orlando TRACON
09:53AM 28.7000 -81.2667 240° Southwest 131 151 3,000  Level Orlando TRACON
09:54AM 28.6833 -81.3000 240° Southwest 131 151 3,000  Level Orlando TRACON
09:55AM 28.6667 -81.3333 240° Southwest 129 148 3,000  Level Orlando TRACON
09:56AM 28.6500 -81.3833 249° West 129 148 3,000  Level Orlando TRACON
09:57AM 28.6333 -81.4167 240° Southwest 134 154 3,000  Level Orlando TRACON
09:58AM 28.6000 -81.4500 221° Southwest 139 160 3,100 480 Climbing Orlando TRACON
09:59AM 28.5833 -81.4833 240° Southwest 119 137 4,000 720 Climbing Orlando TRACON
10:00AM 28.5667 -81.5167 240° Southwest 124 143 4,500 420 Climbing Orlando TRACON
10:01AM 28.5500 -81.5333 221° Southwest 135 155 4,900 240 Climbing Orlando TRACON
10:02AM 28.5167 -81.5333 180° South 123 142 5,000  Climbing Orlando TRACON
10:03AM 28.4833 -81.5333 180° South 125 144 4,900  Descending Orlando TRACON
10:04AM 28.4333 -81.5333 180° South 126 145 5,000 300 Climbing Orlando TRACON
10:05AM 28.4000 -81.5333 180° South 114 131 5,600 540 Climbing Orlando TRACON
10:06AM 28.3667 -81.5333 180° South 118 136 6,200 540 Climbing Orlando TRACON
10:07AM 28.3333 -81.5333 180° South 121 139 6,800 240 Climbing Orlando TRACON
10:09AM 28.2750 -81.5217 170° South 131 151 7,000 60 Climbing Miami Center
10:10AM 28.2356 -81.5153 172° South 142 163 7,000  Level Miami Center
10:11AM 28.1958 -81.5161 181° South 147 169 7,000 -60 Level Miami Center
10:12AM 28.1539 -81.5214 186° South 147 169 6,900 -60 Descending Miami Center
10:13AM 28.1122 -81.5197 178° South 147 169 6,900  Level Miami Center
10:14AM 28.0725 -81.5228 184° South 147 169 7,000  Climbing Miami Center
10:15AM 28.0308 -81.5233 181° South 147 169 7,000 -60 Level Miami Center
10:16AM 27.9911 -81.5217 178° South 147 169 6,900 -60 Descending Miami Center
10:17AM 27.9517 -81.5225 181° South 147 169 6,900  Level Miami Center
10:18AM 27.9119 -81.5256 184° South 147 169 6,900  Level Miami Center
10:19AM 27.8719 -81.5286 184° South 142 163 7,000  Climbing Miami Center
10:20AM 27.8303 -81.5269 178° South 142 163 7,000  Level Miami Center
10:21AM 27.7886 -81.5275 181° South 142 163 7,000  Level Miami Center
10:22AM 27.7492 -81.5258 178° South 142 163 7,000  Level Miami Center
10:23AM 27.7072 -81.5289 184° South 142 163 7,000  Level Miami Center
10:24AM 27.6672 -81.5367 190° South 142 163 7,000 -60 Level Miami Center
10:25AM 27.6275 -81.5397 184° South 147 169 6,900 -60 Descending Miami Center
10:26AM 27.5858 -81.5425 183° South 147 169 6,900  Level Miami Center
10:27AM 27.5458 -81.5481 187° South 147 169 7,000  Climbing Miami Center
10:28AM 27.5042 -81.5511 184° South 147 169 7,000  Level Miami Center
10:29AM 27.4642 -81.5564 187° South 147 169 7,000  Level Miami Center
10:30AM 27.4222 -81.5617 186° South 147 169 7,000 -60 Level Miami Center
10:31AM 27.3825 -81.5625 181° South 147 169 6,900 -60 Descending Miami Center
10:32AM 27.3408 -81.5653 183° South 147 169 6,900  Level Miami Center
10:33AM 27.3008 -81.5708 187° South 147 169 6,900  Level Miami Center
10:34AM 27.2592 -81.5736 183° South 147 169 7,000  Climbing Miami Center
10:35AM 27.2172 -81.5767 184° South 147 169 7,000  Level Miami Center
10:36AM 27.1775 -81.5775 181° South 147 169 7,000  Level Miami Center
10:37AM 27.1378 -81.5806 184° South 142 163 7,000  Level Miami Center
10:38AM 27.0981 -81.5858 187° South 142 163 7,000 -60 Level Miami Center
10:39AM 27.0583 -81.5889 184° South 147 169 6,900 -60 Descending Miami Center
10:40AM 27.0183 -81.5942 187° South 147 169 6,900  Level Miami Center
10:41AM 26.9767 -81.5950 181° South 147 169 7,000  Climbing Miami Center
10:42AM 26.9367 -81.6003 187° South 142 163 7,000  Level Miami Center
10:43AM 26.8992 -81.6033 184° South 142 163 7,000  Level Miami Center
10:44AM 26.8575 -81.6017 178° South 142 163 7,000  Level Miami Center
10:45AM 26.8175 -81.6047 184° South 147 169 7,000  Level Miami Center
10:46AM 26.7781 -81.6053 181° South 147 169 7,000  Level Miami Center
10:47AM 26.7361 -81.6061 181° South 147 169 7,000 -60 Level Miami Center
11:01AM 26.1564 -81.6522 184° South 146 168 6,800 -60 Descending Miami Center
11:02AM 26.1368 -81.6548 184° South  Level FlightAware Approximate
11:02AM 26.1167 -81.6506 178° South 146 168 6,800  Level Miami Center
11:03AM 26.0954 -81.6582 184° South  Level FlightAware Approximate
11:03AM 26.0833 -81.6539 185° South 141 162 6,900  Level Miami Center
11:04AM 26.0541 -81.6615 184° South  Level FlightAware Approximate
11:04AM 26.0433 -81.6569 184° South 141 162 6,900  Level Miami Center
11:05AM 26.0128 -81.6648 184° South  Level FlightAware Approximate
11:05AM 26.0036 -81.6600 184° South 141 162 6,900  Level Miami Center
11:06AM 25.9715 -81.6682 184° South  Level FlightAware Approximate
11:06AM 25.9639 -81.6631 184° South 146 168 6,900  Level Miami Center
11:07AM 25.9301 -81.6715 184° South  Level FlightAware Approximate
11:07AM 25.9261 -81.6661 184° South 141 162 6,800  Level Miami Center
11:08AM 25.8886 -81.6692 184° South 141 162 6,800  Level Miami Center
11:09AM 25.8489 -81.6700 181° South 141 162 6,900  Climbing Miami Center
11:10AM 25.8069 -81.6750 186° South 141 162 6,900 -60 Level Miami Center
11:11AM 25.7711 -81.6806 188° South 141 162 6,800  Descending Miami Center
11:12AM 25.7314 -81.6836 184° South 141 162 6,900  Climbing Miami Center
11:13AM 25.6939 -81.6822 178° South 141 162 6,900  Level Miami Center
11:14AM 25.6561 -81.6853 184° South 141 162 6,900  Level Miami Center
11:15AM 25.6186 -81.6861 181° South 141 162 6,900  Level Miami Center
11:16AM 25.5808 -81.6914 187° South 146 168 6,900  Level Miami Center
11:17AM 25.5431 -81.6969 188° South 141 162 6,900 -60 Level Miami Center
11:18AM 25.5033 -81.6975 181° South 141 162 6,800 -360 Descending Miami Center
11:19AM 25.4658 -81.6983 181° South 141 162 6,200 -660 Descending Miami Center
11:20AM 25.4281 -81.7036 187° South 141 162 5,500 -660 Descending Miami Center
11:21AM 25.3903 -81.7044 181° South 141 162 4,900 -600 Descending Miami Center
11:22AM 25.3547 -81.7100 188° South 141 162 4,300 -600 Descending Miami Center
11:23AM 25.3172 -81.7108 181° South 141 162 3,800 -240 Descending Miami Center
11:24AM 25.2836 -81.7142 185° South 141 162 3,900  Climbing Miami Center
11:25AM 25.2481 -81.7172 184° South 141 162 3,900  Level Miami Center
11:26AM 25.2164 -81.7206 185° South 141 162 3,900  Level Miami Center
11:27AM 25.1767 -81.7236 184° South 141 162 3,900  Level Miami Center
11:28AM 25.1411 -81.7267 184° South 141 162 4,000  Climbing Miami Center
11:29AM 25.1056 -81.7275 181° South 141 162 4,000  Level Miami Center
11:30AM 25.0700 -81.7331 188° South 141 162 4,000  Level Miami Center
11:31AM 25.0344 -81.7294 175° South 141 162 4,000 -300 Level Miami Center
11:32AM 25.0072 -81.7375 195° South 141 162 3,500 -660 Descending Miami Center
11:33AM 24.9669 -81.7542 201° Southwest 136 157 2,700 -840 Descending Miami Center
11:35AM 24.9228 -81.7535 179° South  Level FlightAware Approximate
11:42AM 24.6459 -81.7500 180° South  Level FlightAware Approximate
11:43AM 24.6064 -81.7500 180° South  Level FlightAware Approximate
11:44AM 24.5669 -81.7500 180° South  Level FlightAware Approximate
11:45AM 24.5500 -81.7500 180° South  Level FlightAware Approximate
11:46AM 24.5561 -81.7596 180° South  Level Estimated
11:47AM 24.5561 -81.7596 180° South  Level Estimated
11:48AM 24.5561 -81.7596 180° South  Level Estimated
11:49AM 24.5561 -81.7596 180° South  Level Estimated
11:50AM 24.5561 -81.7596 180° South  Level Estimated
11:51AM 24.5561 -81.7596 180° South  Level Estimated
11:52AM 24.5561 -81.7596 180° South  Level Estimated
11:53AM 24.5561 -81.7596 180° South  Level Estimated
11:54AM 24.5561 -81.7596 180° South  Level Estimated
11:55AM 24.5561 -81.7596 180° South  Level Estimated
11:56AM 24.5561 -81.7596 180° South  Level Estimated
11:57AM 24.5561 -81.7596 180° South  Level Estimated